ADDS METAR Data INFO
IDs: Format: Raw Decoded Include TAF

Data at: 1838 UTC 17 Oct 2017

KJEF 171753Z 19008KT 10SM CLR 19/06 A3026 RMK AO2 SLP236 T01890056 10189 20056 58017
KJEF 171653Z 18008KT 10SM CLR 18/05 A3028 RMK AO2 SLP245 T01780050 $
KJEF 171553Z 18003KT 10SM CLR 15/06 A3030 RMK AO2 SLP251 T01500056 $
KJEF 171453Z 17006KT 10SM CLR 12/05 A3031 RMK AO2 SLP254 T01220050 50005 $
KJEF 171353Z 12005KT 10SM CLR 09/05 A3031 RMK AO2 SLP256 T00940050 $
KJEF 171253Z 11003KT 10SM CLR 06/03 A3030 RMK AO2 SLP252 T00560033 $
KJEF 171153Z 12004KT 10SM CLR 06/04 A3029 RMK AO2 SLP249 T00610039 10078 20050 51007
KJEF 171053Z AUTO 12006KT 10SM CLR 06/04 A3029 RMK AO2 SLP247 T00560039
KJEF 170953Z AUTO 12005KT 10SM CLR 06/04 A3028 RMK AO2 SLP243 T00610039
KJEF 170853Z AUTO 13004KT 10SM CLR 05/04 A3027 RMK AO2 SLP241 T00500039 58003
KJEF 170753Z AUTO 10004KT 10SM CLR 06/04 A3028 RMK AO2 SLP244 T00610044
KJEF 170653Z AUTO 11004KT 10SM CLR 07/04 A3028 RMK AO2 SLP243 T00670044
KJEF 170553Z AUTO 12004KT 10SM CLR 07/05 A3028 RMK AO2 SLP244 T00720050 10156 20067 402000039 58004
KJEF 170453Z AUTO 00000KT 10SM CLR 08/06 A3029 RMK AO2 SLP247 T00780056
KJEF 170353Z AUTO 11003KT 10SM CLR 08/06 A3029 RMK AO2 SLP249 T00830056
KJEF 170253Z AUTO 00000KT 10SM CLR 09/06 A3029 RMK AO2 SLP248 T00890061 52006
KJEF 170153Z 00000KT 10SM CLR 10/06 A3028 RMK AO2 SLP247 T01000061
KJEF 170053Z 00000KT 10SM CLR 11/06 A3028 RMK AO2 SLP245 T01110056
KJEF 162353Z COR 00000KT 10SM CLR 16/06 A3027 RMK AO2 SLP242 T01560056 10200 20150 56009
KJEF 162253Z 23005KT 10SM CLR 18/03 A3027 RMK AO2 SLP242 T01830028
KJEF 162153Z 29006KT 10SM CLR 19/03 A3028 RMK AO2 SLP245 T01940028
KJEF 162053Z VRB05KT 10SM CLR 20/01 A3030 RMK AO2 SLP250 T02000011 56026
KJEF 161953Z VRB05KT 10SM CLR 19/02 A3032 RMK AO2 SLP257 T01940022
KJEF 161853Z COR VRB05KT 9SM CLR 19/02 A3034 RMK AO2 SLP266 T01890017
KJEF 161753Z 22006KT 10SM CLR 18/03 A3038 RMK AO2 SLP277 T01780028 10183 20039 58014
KJEF 161653Z 23006KT 10SM CLR 17/03 A3040 RMK AO2 SLP286 T01670028
KJEF 161553Z VRB03KT 10SM CLR 14/06 A3042 RMK AO2 SLP292 T01440061
KJEF 161453Z 00000KT 10SM CLR 10/06 A3042 RMK AO2 SLP292 T01000056 52006
KJEF 161417Z 00000KT 4SM BR CLR 08/06 A3042 RMK AO2 T00830061
KJEF 161410Z 00000KT 2SM BR CLR 08/06 A3042 RMK AO2 VIS 1V4 T00780061
KJEF 161353Z COR 00000KT 4SM BR CLR 07/06 A3041 RMK AO2 SLP291 T00670056
KJEF 161302Z 00000KT 1SM BR CLR 04/04 A3041 RMK AO2 T00440039
KJEF 161253Z 00000KT 1/4SM FG VV001 04/03 A3041 RMK AO2 SLP288 T00390033
KJEF 161242Z 00000KT 1/4SM FG VV001 04/03 A3040 RMK AO2 T00440033
KJEF 161227Z 00000KT 1/4SM FG VV002 04/03 A3040 RMK AO2 T00390033
KJEF 161153Z 00000KT 1/4SM FG VV001 04/04 A3040 RMK AO2 SLP285 T00440039 10072 20044 51008
KJEF 161134Z 00000KT 1/4SM FG VV001 05/04 A3040 RMK AO2 T00500039
KJEF 161053Z AUTO 00000KT 1/4SM FG VV002 04/04 A3039 RMK AO2 SLP283 T00440039 $
KJEF 161049Z AUTO 00000KT 1/4SM FG VV002 04/04 A3039 RMK AO2 $
KJEF 160953Z AUTO 00000KT 1/4SM FG VV001 05/04 A3038 RMK AO2 SLP278 T00500039 $
KJEF 160931Z AUTO 28003KT 3/4SM BR VV001 04/04 A3038 RMK AO2 T00440039 $
KJEF 160921Z AUTO 28003KT 3/4SM BR VV002 04/04 A3037 RMK AO2 T00440039 $
KJEF 160917Z AUTO 00000KT 1 3/4SM BR SCT002 04/03 A3037 RMK AO2 T00440033 $
KJEF 160913Z AUTO 00000KT 7SM FEW002 05/04 A3037 RMK AO2 T00500039 $
KJEF 160853Z AUTO 30003KT 10SM CLR 06/04 A3037 RMK AO2 SLP275 T00560039 51003 $
KJEF 160753Z AUTO 00000KT 10SM CLR 06/04 A3037 RMK AO2 SLP274 T00610044 $
KJEF 160653Z AUTO 33003KT 10SM CLR 06/05 A3037 RMK AO2 SLP275 T00610050 $